METAR Data
IDs: Format: Raw Decoded Include TAF

Data at: 0710 UTC 24 Jan 2019

METAR for:KRZT (Chillicothe/Ross Cnt, OH, US)
Text:KRZT 240655Z AUTO 32008KT 10SM OVC008 00/00 A2967 RMK AO2 P0004
Temperature: 0.0°C ( 32°F)
Dewpoint: 0.0°C ( 32°F) [RH = 100%]
Pressure (altimeter):29.67 inches Hg (1004.8 mb)
Winds:from the NW (320 degrees) at 9 MPH (8 knots; 4.1 m/s)
Visibility:10 or more sm (16+ km)
Ceiling:800 feet AGL
Clouds: overcast cloud deck at 800 feet AGL
QC Flag:automated observation with no human augmentation